createdAt,value
2023-04-16T00:00:13.709Z,25.58
2023-04-16T00:00:43.819Z,25.61
2023-04-16T00:01:13.934Z,25.58
2023-04-16T00:01:44.069Z,25.60
2023-04-16T00:02:14.171Z,25.60
2023-04-16T00:02:44.374Z,25.60
2023-04-16T00:03:14.389Z,25.60
2023-04-16T00:03:44.446Z,25.60
2023-04-16T00:04:14.302Z,25.61
2023-04-16T00:04:44.521Z,25.60
2023-04-16T00:05:14.397Z,25.60
2023-04-16T00:05:44.511Z,25.60
2023-04-16T00:06:14.630Z,25.61
2023-04-16T00:06:44.651Z,25.58
2023-04-16T00:07:14.633Z,25.60
2023-04-16T00:07:44.749Z,25.58
2023-04-16T00:08:14.858Z,25.57
2023-04-16T00:08:44.982Z,25.60
2023-04-16T00:09:15.085Z,25.61
2023-04-16T00:09:45.103Z,25.60
2023-04-16T00:10:15.126Z,25.60
2023-04-16T00:10:45.151Z,25.60
2023-04-16T00:11:15.182Z,25.61
2023-04-16T00:11:45.229Z,25.58
2023-04-16T00:12:15.259Z,25.57
2023-04-16T00:12:45.312Z,25.58
2023-04-16T00:13:15.316Z,25.58
2023-04-16T00:13:45.342Z,25.60
2023-04-16T00:14:15.363Z,25.58
2023-04-16T00:14:45.406Z,25.58
2023-04-16T00:15:15.414Z,25.60
2023-04-16T00:15:45.439Z,25.60
2023-04-16T00:16:15.517Z,25.60
2023-04-16T00:16:45.646Z,25.58
2023-04-16T00:17:15.536Z,25.60
2023-04-16T00:17:45.616Z,25.61
2023-04-16T00:18:15.717Z,25.58
2023-04-16T00:18:45.742Z,25.60
2023-04-16T00:19:15.770Z,25.58
2023-04-16T00:19:45.803Z,25.60
2023-04-16T00:20:15.895Z,25.58
2023-04-16T00:20:45.895Z,25.60
2023-04-16T00:21:15.917Z,25.61
2023-04-16T00:21:45.957Z,25.57
2023-04-16T00:22:15.991Z,25.60
2023-04-16T00:22:46.012Z,25.60
2023-04-16T00:23:16.057Z,25.58
2023-04-16T00:23:46.076Z,25.60
2023-04-16T00:24:16.145Z,25.58
2023-04-16T00:24:46.237Z,25.58
2023-04-16T00:25:16.279Z,25.58
2023-04-16T00:25:46.302Z,25.58
2023-04-16T00:26:16.321Z,25.60
2023-04-16T00:26:46.368Z,25.58
2023-04-16T00:27:16.412Z,25.57
2023-04-16T00:27:46.421Z,25.58
2023-04-16T00:28:16.480Z,25.58
2023-04-16T00:28:46.498Z,25.58
2023-04-16T00:29:16.514Z,25.60
2023-04-16T00:29:46.536Z,25.57
2023-04-16T00:30:16.568Z,25.57
2023-04-16T00:30:46.658Z,25.57
2023-04-16T00:31:16.753Z,25.57
2023-04-16T00:31:46.791Z,25.58
2023-04-16T00:32:16.823Z,25.57
2023-04-16T00:32:46.972Z,25.55
2023-04-16T00:33:16.868Z,25.58
2023-04-16T00:33:46.899Z,25.57
2023-04-16T00:34:16.929Z,25.57
2023-04-16T00:34:46.953Z,25.57
2023-04-16T00:35:16.968Z,25.57
2023-04-16T00:35:46.988Z,25.57
2023-04-16T00:36:17.013Z,25.55
2023-04-16T00:36:47.054Z,25.57
2023-04-16T00:37:17.079Z,25.55
2023-04-16T00:37:47.106Z,25.57
2023-04-16T00:38:17.129Z,25.57
2023-04-16T00:38:47.154Z,25.57
2023-04-16T00:39:17.179Z,25.55
2023-04-16T00:39:47.215Z,25.57
2023-04-16T00:40:17.245Z,25.57
2023-04-16T00:40:47.289Z,25.55
2023-04-16T00:41:17.305Z,25.58
2023-04-16T00:41:47.384Z,25.57
2023-04-16T00:42:17.418Z,25.57
2023-04-16T00:42:47.437Z,25.57
2023-04-16T00:43:17.464Z,25.57
2023-04-16T00:43:47.514Z,25.57
2023-04-16T00:44:17.512Z,25.55
2023-04-16T00:44:47.542Z,25.58
2023-04-16T00:45:17.573Z,25.55
2023-04-16T00:45:47.644Z,25.58
2023-04-16T00:46:17.701Z,25.57
2023-04-16T00:46:47.871Z,25.55
2023-04-16T00:47:17.883Z,25.57
2023-04-16T00:47:47.943Z,25.57
2023-04-16T00:48:17.984Z,25.57
2023-04-16T00:48:48.011Z,25.57
2023-04-16T00:49:18.033Z,25.55
2023-04-16T00:49:48.059Z,25.57
2023-04-16T00:50:18.076Z,25.57
2023-04-16T00:50:48.109Z,25.54
2023-04-16T00:51:18.137Z,25.54
2023-04-16T00:51:48.183Z,25.55
2023-04-16T00:52:18.207Z,25.57
2023-04-16T00:52:48.229Z,25.55
2023-04-16T00:53:18.272Z,25.58
2023-04-16T00:53:48.295Z,25.57
2023-04-16T00:54:18.312Z,25.57
2023-04-16T00:54:48.338Z,25.55
2023-04-16T00:55:18.354Z,25.58
2023-04-16T00:55:48.382Z,25.57
2023-04-16T00:56:18.413Z,25.58
2023-04-16T00:56:48.615Z,25.55
2023-04-16T00:57:18.520Z,25.58
2023-04-16T00:58:18.657Z,25.55
2023-04-16T00:58:48.702Z,25.57
2023-04-16T00:59:18.709Z,25.55
2023-04-16T00:59:48.824Z,25.55
2023-04-16T01:00:18.941Z,25.55
2023-04-16T01:00:49.050Z,25.58
2023-04-16T01:01:19.184Z,25.55
2023-04-16T01:01:49.314Z,25.58
2023-04-16T01:02:19.286Z,25.55
2023-04-16T01:02:49.343Z,25.58
2023-04-16T01:03:19.461Z,25.58
2023-04-16T01:03:49.432Z,25.55
2023-04-16T01:04:19.548Z,25.55
2023-04-16T01:04:49.578Z,25.55
2023-04-16T01:05:19.686Z,25.52
2023-04-16T01:05:49.684Z,25.57
2023-04-16T01:06:19.797Z,25.54
2023-04-16T01:06:49.914Z,25.55
2023-04-16T01:07:20.036Z,25.55
2023-04-16T01:07:50.142Z,25.54
2023-04-16T01:08:20.263Z,25.55
2023-04-16T01:08:50.380Z,25.54
2023-04-16T01:09:20.494Z,25.54
2023-04-16T01:09:50.516Z,25.54
2023-04-16T01:10:20.537Z,25.55
2023-04-16T01:10:50.562Z,25.54
2023-04-16T01:11:20.609Z,25.55
2023-04-16T01:11:50.640Z,25.57
2023-04-16T01:12:20.667Z,25.55
2023-04-16T01:12:50.690Z,25.54
2023-04-16T01:13:20.731Z,25.54
2023-04-16T01:13:50.760Z,25.55
2023-04-16T01:14:20.801Z,25.55
2023-04-16T01:14:50.813Z,25.54
2023-04-16T01:15:20.852Z,25.55
2023-04-16T01:15:50.929Z,25.52
2023-04-16T01:16:21.013Z,25.52
2023-04-16T01:16:51.055Z,25.55
2023-04-16T01:17:21.081Z,25.54
2023-04-16T01:17:51.142Z,25.54
2023-04-16T01:18:21.175Z,25.54
2023-04-16T01:18:51.204Z,25.54
2023-04-16T01:19:21.237Z,25.54
2023-04-16T01:19:51.251Z,25.54
2023-04-16T01:20:21.281Z,25.52
2023-04-16T01:20:51.313Z,25.54
2023-04-16T01:21:21.331Z,25.54
2023-04-16T01:21:51.541Z,25.54
2023-04-16T01:22:21.437Z,25.54
2023-04-16T01:23:21.586Z,25.52
2023-04-16T01:23:51.608Z,25.55
2023-04-16T01:24:21.630Z,25.54
2023-04-16T01:24:51.654Z,25.54
2023-04-16T01:25:21.679Z,25.52
2023-04-16T01:25:51.701Z,25.52
2023-04-16T01:26:21.727Z,25.54
2023-04-16T01:26:51.775Z,25.54
2023-04-16T01:27:21.802Z,25.54
2023-04-16T01:27:51.850Z,25.55
2023-04-16T01:28:21.866Z,25.55
2023-04-16T01:28:51.886Z,25.54
2023-04-16T01:29:21.921Z,25.52
2023-04-16T01:29:51.990Z,25.52
2023-04-16T01:30:21.987Z,25.54
2023-04-16T01:30:52.026Z,25.54
2023-04-16T01:31:22.099Z,25.52
2023-04-16T01:31:52.262Z,25.51
2023-04-16T01:32:22.170Z,25.55
2023-04-16T01:32:52.240Z,25.51
2023-04-16T01:33:22.249Z,25.51
2023-04-16T01:33:52.286Z,25.54
2023-04-16T01:34:22.306Z,25.52
2023-04-16T01:34:52.333Z,25.52
2023-04-16T01:35:22.378Z,25.52
2023-04-16T01:35:52.386Z,25.52
2023-04-16T01:36:22.414Z,25.52
2023-04-16T01:36:52.454Z,25.51
2023-04-16T01:37:22.497Z,25.49
2023-04-16T01:37:52.505Z,25.55
2023-04-16T01:38:22.546Z,25.52
2023-04-16T01:38:52.565Z,25.52
2023-04-16T01:39:22.622Z,25.52
2023-04-16T01:39:52.648Z,25.51
2023-04-16T01:40:22.679Z,25.51
2023-04-16T01:40:52.696Z,25.49
2023-04-16T01:41:22.729Z,25.51
2023-04-16T01:41:52.768Z,25.51
2023-04-16T01:42:22.789Z,25.51
2023-04-16T01:42:52.813Z,25.52
2023-04-16T01:43:22.848Z,25.51
2023-04-16T01:43:52.876Z,25.51
2023-04-16T01:44:22.907Z,25.51
2023-04-16T01:44:52.945Z,25.51
2023-04-16T01:45:23.013Z,25.51
2023-04-16T01:45:53.025Z,25.51
2023-04-16T01:46:23.083Z,25.48
2023-04-16T01:46:53.144Z,25.52
2023-04-16T01:47:23.191Z,25.49
2023-04-16T01:47:53.236Z,25.51
2023-04-16T01:48:23.301Z,25.49
2023-04-16T01:48:53.328Z,25.51
2023-04-16T01:49:23.356Z,25.49
2023-04-16T01:49:53.381Z,25.49
2023-04-16T01:50:23.409Z,25.52
2023-04-16T01:50:53.434Z,25.51
2023-04-16T01:51:23.460Z,25.48
2023-04-16T01:51:53.494Z,25.51
2023-04-16T01:52:23.521Z,25.49
2023-04-16T01:52:53.554Z,25.51
2023-04-16T01:53:23.572Z,25.49
2023-04-16T01:53:53.601Z,25.51
2023-04-16T01:54:23.622Z,25.49
2023-04-16T01:54:53.650Z,25.48
2023-04-16T01:55:23.676Z,25.49
2023-04-16T01:55:53.701Z,25.49
2023-04-16T01:56:23.743Z,25.49
2023-04-16T01:56:53.787Z,25.47
2023-04-16T01:57:23.816Z,25.51
2023-04-16T01:57:53.833Z,25.49
2023-04-16T01:58:23.866Z,25.49
2023-04-16T01:58:53.898Z,25.49
2023-04-16T01:59:23.927Z,25.48
2023-04-16T01:59:53.918Z,25.49
2023-04-16T02:00:24.028Z,25.49
2023-04-16T02:00:54.075Z,25.48
2023-04-16T02:01:24.279Z,25.51
2023-04-16T02:01:54.290Z,25.49
2023-04-16T02:02:24.317Z,25.49
2023-04-16T02:02:54.478Z,25.52
2023-04-16T02:03:24.552Z,25.51
2023-04-16T02:03:54.633Z,25.49
2023-04-16T02:04:24.537Z,25.51
2023-04-16T02:04:54.647Z,25.51
2023-04-16T02:05:24.766Z,25.52
2023-04-16T02:05:54.878Z,25.51
2023-04-16T02:06:24.987Z,25.49
2023-04-16T02:06:55.105Z,25.51
2023-04-16T02:07:25.232Z,25.49
2023-04-16T02:07:55.332Z,25.51
2023-04-16T02:08:25.446Z,25.49
2023-04-16T02:08:55.553Z,25.52
2023-04-16T02:09:25.671Z,25.51
2023-04-16T02:09:55.696Z,25.52
2023-04-16T02:10:25.742Z,25.49
2023-04-16T02:10:55.751Z,25.51
2023-04-16T02:11:25.782Z,25.49
2023-04-16T02:11:55.815Z,25.49
2023-04-16T02:12:25.841Z,25.51
2023-04-16T02:12:55.865Z,25.51
2023-04-16T02:13:25.925Z,25.49
2023-04-16T02:13:55.926Z,25.49
2023-04-16T02:14:25.951Z,25.52
2023-04-16T02:14:55.978Z,25.49
2023-04-16T02:15:26.010Z,25.49
2023-04-16T02:15:56.057Z,25.49
2023-04-16T02:16:26.373Z,25.52
2023-04-16T02:16:56.277Z,25.51
2023-04-16T02:17:26.198Z,25.52
2023-04-16T02:17:56.255Z,25.52
2023-04-16T02:18:26.212Z,25.49
2023-04-16T02:18:56.245Z,25.52
2023-04-16T02:19:26.274Z,25.49
2023-04-16T02:19:56.308Z,25.51
2023-04-16T02:20:26.319Z,25.51
2023-04-16T02:20:56.347Z,25.51
2023-04-16T02:21:26.372Z,25.49
2023-04-16T02:21:56.410Z,25.54
2023-04-16T02:22:26.450Z,25.51
2023-04-16T02:22:56.454Z,25.51
2023-04-16T02:23:26.486Z,25.51
2023-04-16T02:23:56.503Z,25.51
2023-04-16T02:24:26.535Z,25.49
2023-04-16T02:24:56.553Z,25.51
2023-04-16T02:25:26.585Z,25.51
2023-04-16T02:25:56.609Z,25.49
2023-04-16T02:26:26.647Z,25.49
2023-04-16T02:26:56.673Z,25.51
2023-04-16T02:27:26.697Z,25.49
2023-04-16T02:27:56.740Z,25.49
2023-04-16T02:28:26.753Z,25.51
2023-04-16T02:28:56.790Z,25.49
2023-04-16T02:29:26.804Z,25.51
2023-04-16T02:29:56.827Z,25.51
2023-04-16T02:30:26.847Z,25.49
2023-04-16T02:30:56.882Z,25.48
2023-04-16T02:31:26.978Z,25.51
2023-04-16T02:31:57.048Z,25.49
2023-04-16T02:32:27.045Z,25.49
2023-04-16T02:32:57.109Z,25.52
2023-04-16T02:33:27.160Z,25.51
2023-04-16T02:33:57.190Z,25.49
2023-04-16T02:34:27.217Z,25.49
2023-04-16T02:34:57.248Z,25.49
2023-04-16T02:35:27.268Z,25.49
2023-04-16T02:35:57.283Z,25.51
2023-04-16T02:36:27.324Z,25.51
2023-04-16T02:36:57.347Z,25.49
2023-04-16T02:37:27.374Z,25.52
2023-04-16T02:37:57.403Z,25.48
2023-04-16T02:38:27.428Z,25.52
2023-04-16T02:38:57.453Z,25.49
2023-04-16T02:39:27.477Z,25.49
2023-04-16T02:39:57.508Z,25.49
2023-04-16T02:40:27.533Z,25.49
2023-04-16T02:40:57.563Z,25.48
2023-04-16T02:41:27.590Z,25.51
2023-04-16T02:41:57.622Z,25.51
2023-04-16T02:42:27.642Z,25.51
2023-04-16T02:42:57.682Z,25.49
2023-04-16T02:43:27.693Z,25.49
2023-04-16T02:43:57.729Z,25.49
2023-04-16T02:44:27.749Z,25.51
2023-04-16T02:44:57.780Z,25.49
2023-04-16T02:45:27.814Z,25.49
2023-04-16T02:45:57.866Z,25.52
2023-04-16T02:46:27.972Z,25.51
2023-04-16T02:46:57.951Z,25.51
2023-04-16T02:47:27.978Z,25.49
2023-04-16T02:47:58.006Z,25.51
2023-04-16T02:48:28.028Z,25.51
2023-04-16T02:48:58.053Z,25.51
2023-04-16T02:49:28.078Z,25.51
2023-04-16T02:49:58.104Z,25.51
2023-04-16T02:50:28.138Z,25.52
2023-04-16T02:50:58.172Z,25.51
2023-04-16T02:51:28.192Z,25.49
2023-04-16T02:51:58.235Z,25.51
2023-04-16T02:52:28.256Z,25.49
2023-04-16T02:52:58.287Z,25.49
2023-04-16T02:53:28.303Z,25.51
2023-04-16T02:53:58.331Z,25.49
2023-04-16T02:54:28.360Z,25.49
2023-04-16T02:54:58.380Z,25.48
2023-04-16T02:55:28.416Z,25.49
2023-04-16T02:55:58.436Z,25.49
2023-04-16T02:56:28.461Z,25.49
2023-04-16T02:56:58.495Z,25.49
2023-04-16T02:57:28.518Z,25.49
2023-04-16T02:57:58.542Z,25.52
2023-04-16T02:58:28.566Z,25.51
2023-04-16T02:58:58.617Z,25.49
2023-04-16T02:59:28.610Z,25.48
2023-04-16T02:59:58.729Z,25.48
2023-04-16T03:00:28.842Z,25.49
2023-04-16T03:00:58.983Z,25.51
2023-04-16T03:01:29.032Z,25.51
2023-04-16T03:01:59.153Z,25.48
2023-04-16T03:02:29.128Z,25.51
2023-04-16T03:02:59.254Z,25.52
2023-04-16T03:03:29.144Z,25.48
2023-04-16T03:03:59.331Z,25.48
2023-04-16T03:04:29.336Z,25.51
2023-04-16T03:04:59.383Z,25.48
2023-04-16T03:05:29.371Z,25.49
2023-04-16T03:05:59.484Z,25.49
2023-04-16T03:06:29.475Z,25.49
2023-04-16T03:06:59.595Z,25.51
2023-04-16T03:07:29.589Z,25.52
2023-04-16T03:07:59.697Z,25.51
2023-04-16T03:08:29.819Z,25.48
2023-04-16T03:08:59.938Z,25.51
2023-04-16T03:09:29.929Z,25.52
2023-04-16T03:09:59.953Z,25.49
2023-04-16T03:10:29.983Z,25.52
2023-04-16T03:11:00.004Z,25.49
2023-04-16T03:11:30.032Z,25.49
2023-04-16T03:12:00.066Z,25.49
2023-04-16T03:12:30.094Z,25.49
2023-04-16T03:13:00.129Z,25.49
2023-04-16T03:13:30.139Z,25.49
2023-04-16T03:14:00.165Z,25.51
2023-04-16T03:14:30.191Z,25.51
2023-04-16T03:15:00.239Z,25.51
2023-04-16T03:15:30.324Z,25.47
2023-04-16T03:16:00.424Z,25.49
2023-04-16T03:16:30.451Z,25.49
2023-04-16T03:17:00.494Z,25.49
2023-04-16T03:17:30.538Z,25.51
2023-04-16T03:18:00.629Z,25.49
2023-04-16T03:18:30.639Z,25.49
2023-04-16T03:19:00.686Z,25.49
2023-04-16T03:19:30.715Z,25.47
2023-04-16T03:20:00.748Z,25.51
2023-04-16T03:20:30.764Z,25.49
2023-04-16T03:21:00.799Z,25.49
2023-04-16T03:21:30.818Z,25.49
2023-04-16T03:22:00.849Z,25.48
2023-04-16T03:22:30.871Z,25.47
2023-04-16T03:23:00.887Z,25.49
2023-04-16T03:23:30.918Z,25.47
2023-04-16T03:24:00.940Z,25.49
2023-04-16T03:24:30.968Z,25.48
2023-04-16T03:25:00.996Z,25.49
2023-04-16T03:25:31.015Z,25.47
2023-04-16T03:26:01.043Z,25.49
2023-04-16T03:26:31.080Z,25.48
2023-04-16T03:27:01.096Z,25.51
2023-04-16T03:27:31.144Z,25.51
2023-04-16T03:28:01.193Z,25.48
2023-04-16T03:28:31.222Z,25.48
2023-04-16T03:29:01.247Z,25.48
2023-04-16T03:29:31.271Z,25.47
2023-04-16T03:30:01.298Z,25.48
2023-04-16T03:30:31.334Z,25.47
2023-04-16T03:31:01.409Z,25.47
2023-04-16T03:31:31.562Z,25.49
2023-04-16T03:32:01.493Z,25.48
2023-04-16T03:32:31.628Z,25.45
2023-04-16T03:33:01.689Z,25.47
2023-04-16T03:33:31.639Z,25.48
2023-04-16T03:34:01.628Z,25.48
2023-04-16T03:34:31.660Z,25.49
2023-04-16T03:35:01.694Z,25.47
2023-04-16T03:35:31.743Z,25.48
2023-04-16T03:36:01.814Z,25.48
2023-04-16T03:36:31.827Z,25.49
2023-04-16T03:37:01.848Z,25.49
2023-04-16T03:37:31.875Z,25.47
2023-04-16T03:38:01.905Z,25.47
2023-04-16T03:38:31.923Z,25.48
2023-04-16T03:39:01.953Z,25.47
2023-04-16T03:39:31.979Z,25.48
2023-04-16T03:40:02.008Z,25.48
2023-04-16T03:40:32.040Z,25.48
2023-04-16T03:41:02.052Z,25.47
2023-04-16T03:41:32.154Z,25.49
2023-04-16T03:42:02.204Z,25.48
2023-04-16T03:42:32.209Z,25.48
2023-04-16T03:43:02.314Z,25.48
2023-04-16T03:43:32.329Z,25.49
2023-04-16T03:44:02.360Z,25.45
2023-04-16T03:44:32.371Z,25.48
2023-04-16T03:45:02.460Z,25.48
2023-04-16T03:45:32.472Z,25.48
2023-04-16T03:46:02.537Z,25.48
2023-04-16T03:46:32.668Z,25.47
2023-04-16T03:47:02.556Z,25.48
2023-04-16T03:48:02.683Z,25.47
2023-04-16T03:48:32.713Z,25.48
2023-04-16T03:49:02.767Z,25.47
2023-04-16T03:49:32.776Z,25.48
2023-04-16T03:50:02.814Z,25.45
2023-04-16T03:50:32.819Z,25.45
2023-04-16T03:51:02.851Z,25.49
2023-04-16T03:51:32.903Z,25.49
2023-04-16T03:52:02.920Z,25.47
2023-04-16T03:52:32.947Z,25.45
2023-04-16T03:53:02.977Z,25.48
2023-04-16T03:53:33.005Z,25.49
2023-04-16T03:54:03.024Z,25.48
2023-04-16T03:54:33.052Z,25.47
2023-04-16T03:55:03.153Z,25.47
2023-04-16T03:55:33.159Z,25.47
2023-04-16T03:56:03.173Z,25.48
2023-04-16T03:56:33.220Z,25.47
2023-04-16T03:57:03.247Z,25.45
2023-04-16T03:57:33.270Z,25.45
2023-04-16T03:58:03.312Z,25.45
2023-04-16T03:58:33.341Z,25.47
2023-04-16T03:59:03.360Z,25.47
2023-04-16T03:59:33.377Z,25.47
2023-04-16T04:00:03.488Z,25.45
2023-04-16T04:00:33.496Z,25.47
2023-04-16T04:01:03.652Z,25.45
2023-04-16T04:01:33.620Z,25.47
2023-04-16T04:02:03.778Z,25.45
2023-04-16T04:02:33.845Z,25.45
2023-04-16T04:03:04.129Z,25.44
2023-04-16T04:03:34.068Z,25.45
2023-04-16T04:04:04.171Z,25.42
2023-04-16T04:04:34.109Z,25.44
2023-04-16T04:05:04.197Z,25.44
2023-04-16T04:05:34.146Z,25.44
2023-04-16T04:06:04.265Z,25.44
2023-04-16T04:06:34.276Z,25.45
2023-04-16T04:07:04.290Z,25.45
2023-04-16T04:07:34.370Z,25.45
2023-04-16T04:08:04.483Z,25.44
2023-04-16T04:08:34.603Z,25.45
2023-04-16T04:09:04.735Z,25.42
2023-04-16T04:09:34.728Z,25.42
2023-04-16T04:10:04.810Z,25.41
2023-04-16T04:10:34.812Z,25.42
2023-04-16T04:11:04.838Z,25.42
2023-04-16T04:11:34.865Z,25.42
2023-04-16T04:12:04.897Z,25.40
2023-04-16T04:12:34.917Z,25.42
2023-04-16T04:13:05.013Z,25.44
2023-04-16T04:13:35.073Z,25.45
2023-04-16T04:14:05.087Z,25.42
2023-04-16T04:14:35.109Z,25.45
2023-04-16T04:15:05.137Z,25.41
2023-04-16T04:15:35.156Z,25.42
2023-04-16T04:16:05.210Z,25.41
2023-04-16T04:16:35.289Z,25.42
2023-04-16T04:17:05.222Z,25.40
2023-04-16T04:17:35.305Z,25.42
2023-04-16T04:18:05.417Z,25.41
2023-04-16T04:18:35.339Z,25.40
2023-04-16T04:19:05.374Z,25.40
2023-04-16T04:19:35.428Z,25.44
2023-04-16T04:20:05.482Z,25.42
2023-04-16T04:20:35.470Z,25.44
2023-04-16T04:21:05.524Z,25.44
2023-04-16T04:21:35.545Z,25.41
2023-04-16T04:22:05.573Z,25.41
2023-04-16T04:22:35.599Z,25.40
2023-04-16T04:23:05.630Z,25.42
2023-04-16T04:23:35.652Z,25.41
2023-04-16T04:24:05.675Z,25.42
2023-04-16T04:24:35.700Z,25.41
2023-04-16T04:25:05.724Z,25.41
2023-04-16T04:25:35.746Z,25.42
2023-04-16T04:26:05.920Z,25.42
2023-04-16T04:26:35.932Z,25.44
2023-04-16T04:27:05.959Z,25.44
2023-04-16T04:27:35.990Z,25.41
2023-04-16T04:28:06.014Z,25.41
2023-04-16T04:28:36.048Z,25.41
2023-04-16T04:29:06.154Z,25.42
2023-04-16T04:29:36.174Z,25.41
2023-04-16T04:30:06.213Z,25.42
2023-04-16T04:30:36.233Z,25.42
2023-04-16T04:31:06.278Z,25.42
2023-04-16T04:31:36.350Z,25.42
2023-04-16T04:32:06.423Z,25.44
2023-04-16T04:32:36.502Z,25.41
2023-04-16T04:33:06.606Z,25.44
2023-04-16T04:33:36.628Z,25.42
2023-04-16T04:34:06.636Z,25.44
2023-04-16T04:34:36.666Z,25.42
2023-04-16T04:35:06.686Z,25.45
2023-04-16T04:35:36.737Z,25.44
2023-04-16T04:36:06.780Z,25.45
2023-04-16T04:36:36.780Z,25.45
2023-04-16T04:37:06.809Z,25.44
2023-04-16T04:37:36.846Z,25.44
2023-04-16T04:38:06.868Z,25.44
2023-04-16T04:38:36.892Z,25.47
2023-04-16T04:39:07.215Z,25.41
2023-04-16T04:39:36.914Z,25.42
2023-04-16T04:40:06.933Z,25.45
2023-04-16T04:40:36.958Z,25.44
2023-04-16T04:41:07.007Z,25.44
2023-04-16T04:41:37.026Z,25.45
2023-04-16T04:42:07.051Z,25.44
2023-04-16T04:42:37.081Z,25.44
2023-04-16T04:43:07.104Z,25.44
2023-04-16T04:43:37.139Z,25.44
2023-04-16T04:44:07.155Z,25.44
2023-04-16T04:44:37.214Z,25.44
2023-04-16T04:45:07.228Z,25.45
2023-04-16T04:45:37.275Z,25.44
2023-04-16T04:46:07.307Z,25.45
2023-04-16T04:46:37.330Z,25.41
2023-04-16T04:47:07.362Z,25.42
2023-04-16T04:47:37.418Z,25.44
2023-04-16T04:48:07.453Z,25.44
2023-04-16T04:48:37.478Z,25.47
2023-04-16T04:49:07.824Z,25.45
2023-04-16T04:49:37.554Z,25.44
2023-04-16T04:50:07.585Z,25.45
2023-04-16T04:50:37.605Z,25.45
2023-04-16T04:51:07.656Z,25.44
2023-04-16T04:51:37.664Z,25.45
2023-04-16T04:52:07.678Z,25.44
2023-04-16T04:52:37.707Z,25.42
2023-04-16T04:53:07.731Z,25.45
2023-04-16T04:53:37.754Z,25.44
2023-04-16T04:54:07.776Z,25.44
2023-04-16T04:54:37.796Z,25.42
2023-04-16T04:55:07.831Z,25.42
2023-04-16T04:55:37.859Z,25.45
2023-04-16T04:56:37.983Z,25.42
2023-04-16T04:57:08.008Z,25.44
2023-04-16T04:57:38.030Z,25.44
2023-04-16T04:58:08.056Z,25.45
2023-04-16T04:58:38.079Z,25.45
2023-04-16T04:59:08.361Z,25.45
2023-04-16T04:59:38.170Z,25.45
2023-04-16T05:00:08.281Z,25.42
2023-04-16T05:00:38.392Z,25.44
2023-04-16T05:01:08.576Z,25.42
2023-04-16T05:01:38.652Z,25.45
2023-04-16T05:02:08.617Z,25.45
2023-04-16T05:02:38.708Z,25.44
2023-04-16T05:03:08.708Z,25.44
2023-04-16T05:03:38.920Z,25.44
2023-04-16T05:04:08.752Z,25.44
2023-04-16T05:04:38.841Z,25.44
2023-04-16T05:05:08.901Z,25.44
2023-04-16T05:05:38.893Z,25.44
2023-04-16T05:06:08.899Z,25.44
2023-04-16T05:06:39.024Z,25.45
2023-04-16T05:07:09.165Z,25.44
2023-04-16T05:07:39.135Z,25.45
2023-04-16T05:08:09.262Z,25.44
2023-04-16T05:08:39.372Z,25.44
2023-04-16T05:09:09.739Z,25.44
2023-04-16T05:09:39.598Z,25.42
2023-04-16T05:10:09.623Z,25.45
2023-04-16T05:10:39.653Z,25.44
2023-04-16T05:11:09.684Z,25.45
2023-04-16T05:11:39.728Z,25.44
2023-04-16T05:12:09.745Z,25.44
2023-04-16T05:12:39.765Z,25.45
2023-04-16T05:13:09.788Z,25.42
2023-04-16T05:13:39.818Z,25.44
2023-04-16T05:14:09.848Z,25.44
2023-04-16T05:14:39.876Z,25.44
2023-04-16T05:15:09.902Z,25.44
2023-04-16T05:15:39.929Z,25.44
2023-04-16T05:16:10.046Z,25.44
2023-04-16T05:16:40.081Z,25.45
2023-04-16T05:17:10.145Z,25.42
2023-04-16T05:17:40.183Z,25.44
2023-04-16T05:18:10.209Z,25.44
2023-04-16T05:18:40.232Z,25.45
2023-04-16T05:19:10.422Z,25.44
2023-04-16T05:19:40.291Z,25.42
2023-04-16T05:20:10.320Z,25.44
2023-04-16T05:20:40.357Z,25.45
2023-04-16T05:21:10.374Z,25.42
2023-04-16T05:21:40.397Z,25.44
2023-04-16T05:22:10.452Z,25.44
2023-04-16T05:22:40.447Z,25.44
2023-04-16T05:23:10.479Z,25.42
2023-04-16T05:23:40.525Z,25.44
2023-04-16T05:24:10.830Z,25.45
2023-04-16T05:24:40.603Z,25.44
2023-04-16T05:25:10.628Z,25.44
2023-04-16T05:25:40.653Z,25.42
2023-04-16T05:26:10.688Z,25.44
2023-04-16T05:26:40.704Z,25.44
2023-04-16T05:27:10.728Z,25.44
2023-04-16T05:27:40.757Z,25.42
2023-04-16T05:28:10.796Z,25.41
2023-04-16T05:28:40.804Z,25.42
2023-04-16T05:29:11.013Z,25.42
2023-04-16T05:29:40.905Z,25.41
2023-04-16T05:30:10.934Z,25.42
2023-04-16T05:30:40.958Z,25.41
2023-04-16T05:31:11.033Z,25.44
2023-04-16T05:31:41.049Z,25.42
2023-04-16T05:32:11.082Z,25.45
2023-04-16T05:32:41.200Z,25.42
2023-04-16T05:33:11.113Z,25.42
2023-04-16T05:33:41.136Z,25.44
2023-04-16T05:34:11.172Z,25.42
2023-04-16T05:34:41.199Z,25.42
2023-04-16T05:35:11.226Z,25.40
2023-04-16T05:35:41.257Z,25.42
2023-04-16T05:36:11.281Z,25.42
2023-04-16T05:36:41.312Z,25.42
2023-04-16T05:37:11.343Z,25.42
2023-04-16T05:37:41.447Z,25.42
2023-04-16T05:38:11.453Z,25.42
2023-04-16T05:38:41.479Z,25.42
2023-04-16T05:39:11.700Z,25.42
2023-04-16T05:39:41.558Z,25.44
2023-04-16T05:40:11.584Z,25.40
2023-04-16T05:40:41.635Z,25.41
2023-04-16T05:41:11.649Z,25.42
2023-04-16T05:41:41.678Z,25.40
2023-04-16T05:42:11.700Z,25.42
2023-04-16T05:42:41.731Z,25.41
2023-04-16T05:43:11.752Z,25.41
2023-04-16T05:43:41.781Z,25.41
2023-04-16T05:44:11.813Z,25.44
2023-04-16T05:44:41.825Z,25.41
2023-04-16T05:45:11.852Z,25.41
2023-04-16T05:45:41.902Z,25.44
2023-04-16T05:46:11.931Z,25.41
2023-04-16T05:46:42.002Z,25.44
2023-04-16T05:47:12.038Z,25.42
2023-04-16T05:47:42.075Z,25.41
2023-04-16T05:48:12.083Z,25.44
2023-04-16T05:48:42.110Z,25.41
2023-04-16T05:49:12.257Z,25.42
2023-04-16T05:49:42.157Z,25.42
2023-04-16T05:50:12.202Z,25.42
2023-04-16T05:50:42.233Z,25.41
2023-04-16T05:51:12.265Z,25.40
2023-04-16T05:51:42.284Z,25.42
2023-04-16T05:52:12.316Z,25.42
2023-04-16T05:52:42.331Z,25.41
2023-04-16T05:53:12.380Z,25.41
2023-04-16T05:53:42.391Z,25.41
2023-04-16T05:54:12.410Z,25.41
2023-04-16T05:54:42.436Z,25.38
2023-04-16T05:55:12.470Z,25.42
2023-04-16T05:55:42.502Z,25.42
2023-04-16T05:56:12.525Z,25.42
2023-04-16T05:56:42.556Z,25.44
2023-04-16T05:57:12.580Z,25.44
2023-04-16T05:57:42.612Z,25.41
2023-04-16T05:58:12.637Z,25.42
2023-04-16T05:58:42.658Z,25.41
2023-04-16T05:59:12.692Z,25.41
2023-04-16T05:59:42.689Z,25.41
2023-04-16T06:00:12.796Z,25.40
2023-04-16T06:00:42.930Z,25.42
2023-04-16T06:01:12.918Z,25.41
2023-04-16T06:02:13.038Z,25.42
2023-04-16T06:02:43.222Z,25.42
2023-04-16T06:03:13.311Z,25.41
2023-04-16T06:03:43.375Z,25.40
2023-04-16T06:04:13.484Z,25.44
2023-04-16T06:04:43.285Z,25.40
2023-04-16T06:05:13.495Z,25.41
2023-04-16T06:05:43.513Z,25.40
2023-04-16T06:06:13.536Z,25.42
2023-04-16T06:06:43.649Z,25.42
2023-04-16T06:07:13.752Z,25.44
2023-04-16T06:07:43.865Z,25.40
2023-04-16T06:08:13.980Z,25.44
2023-04-16T06:08:44.113Z,25.41
2023-04-16T06:09:14.208Z,25.41
2023-04-16T06:09:44.224Z,25.41
2023-04-16T06:10:14.257Z,25.41
2023-04-16T06:10:44.312Z,25.40
2023-04-16T06:11:14.334Z,25.40
2023-04-16T06:11:44.356Z,25.40
2023-04-16T06:12:14.380Z,25.41
2023-04-16T06:12:44.417Z,25.41
2023-04-16T06:13:14.453Z,25.41
2023-04-16T06:13:44.461Z,25.37
2023-04-16T06:14:14.486Z,25.41
2023-04-16T06:14:44.505Z,25.38
2023-04-16T06:15:14.534Z,25.40
2023-04-16T06:15:44.613Z,25.41
2023-04-16T06:16:14.711Z,25.40
2023-04-16T06:16:44.737Z,25.41
2023-04-16T06:17:14.758Z,25.41
2023-04-16T06:17:44.819Z,25.41
2023-04-16T06:18:14.914Z,25.40
2023-04-16T06:18:44.940Z,25.41
2023-04-16T06:19:14.985Z,25.41
2023-04-16T06:19:44.997Z,25.38
2023-04-16T06:20:15.028Z,25.38
2023-04-16T06:20:45.079Z,25.40
2023-04-16T06:21:15.101Z,25.41
2023-04-16T06:21:45.126Z,25.40
2023-04-16T06:22:15.148Z,25.41
2023-04-16T06:22:45.173Z,25.40
2023-04-16T06:23:15.216Z,25.40
2023-04-16T06:23:45.228Z,25.41
2023-04-16T06:24:15.274Z,25.40
2023-04-16T06:24:45.283Z,25.40
2023-04-16T06:25:18.022Z,25.38
2023-04-16T06:25:45.376Z,25.40
2023-04-16T06:26:15.387Z,25.41
2023-04-16T06:26:45.413Z,25.41
2023-04-16T06:27:15.436Z,25.40
2023-04-16T06:27:45.463Z,25.40
2023-04-16T06:28:15.488Z,25.41
2023-04-16T06:28:45.527Z,25.38
2023-04-16T06:29:15.554Z,25.40